Time;durP1;ratioP1;P1;durP2;ratioP2;P2;SDS_P1;SDS_P2;PMS_P1;PMS_P2;Temp;Humidity;BMP_temperature;BMP_pressure;BME280_temperature;BME280_humidity;BME280_pressure;Samples;Min_cycle;Max_cycle;Signal;HPM_P1;HPM_P2
2023/10/22 00:01:13;;;;;;;21.60;14.83;;;11.70;99.90;;;;;;5182755;28;20185;-49
2023/10/22 00:03:44;;;;;;;22.83;16.00;;;11.80;99.90;;;;;;5182270;28;20743;-49
2023/10/22 00:06:15;;;;;;;26.00;14.07;;;11.80;99.90;;;;;;5183820;28;20522;-48
2023/10/22 00:08:45;;;;;;;14.07;11.30;;;11.70;99.90;;;;;;5176522;28;20205;-49
2023/10/22 00:11:16;;;;;;;13.73;12.20;;;11.80;99.90;;;;;;5182809;28;20192;-49
2023/10/22 00:13:47;;;;;;;21.10;14.13;;;11.70;99.90;;;;;;5184019;28;20197;-49
2023/10/22 00:16:17;;;;;;;20.90;12.90;;;11.80;99.90;;;;;;5176654;28;20701;-49
2023/10/22 00:18:48;;;;;;;20.13;13.90;;;11.70;99.90;;;;;;5183666;28;20723;-48
2023/10/22 00:21:19;;;;;;;23.53;13.97;;;11.70;99.90;;;;;;5184004;28;20211;-49
2023/10/22 00:23:50;;;;;;;19.37;14.00;;;11.70;99.90;;;;;;5183736;28;20477;-49
2023/10/22 00:26:21;;;;;;;18.00;12.83;;;11.70;99.90;;;;;;5162573;28;20216;-49
2023/10/22 00:28:52;;;;;;;22.17;13.40;;;11.70;99.90;;;;;;5182899;28;20475;-48
2023/10/22 00:31:22;;;;;;;14.47;12.03;;;11.70;99.90;;;;;;5184254;28;20184;-49
2023/10/22 00:33:53;;;;;;;20.50;12.10;;;11.70;99.90;;;;;;5182201;28;20198;-49
2023/10/22 00:36:24;;;;;;;17.03;12.80;;;11.70;99.90;;;;;;5182905;28;20654;-48
2023/10/22 00:38:55;;;;;;;15.30;10.77;;;11.80;99.90;;;;;;5185962;28;20259;-48
2023/10/22 00:41:25;;;;;;;18.37;11.17;;;11.80;99.90;;;;;;5185388;28;20860;-48
2023/10/22 00:43:56;;;;;;;21.80;13.50;;;11.70;99.90;;;;;;5185264;28;20192;-49
2023/10/22 00:46:27;;;;;;;20.67;12.73;;;11.70;99.90;;;;;;5185362;28;20728;-48
2023/10/22 00:48:58;;;;;;;15.77;11.60;;;11.80;99.90;;;;;;5182807;28;20226;-48
2023/10/22 00:51:29;;;;;;;14.97;10.60;;;11.80;99.90;;;;;;5181620;28;20547;-49
2023/10/22 00:53:59;;;;;;;24.40;13.33;;;11.70;99.90;;;;;;5181214;28;20436;-48
2023/10/22 00:56:30;;;;;;;18.90;12.60;;;11.70;99.90;;;;;;5183751;28;20273;-50
2023/10/22 00:59:01;;;;;;;18.07;12.70;;;11.70;99.90;;;;;;5180630;28;20200;-48
2023/10/22 01:01:32;;;;;;;14.83;12.40;;;11.70;99.90;;;;;;5182715;28;20188;-48
2023/10/22 01:04:03;;;;;;;22.43;13.97;;;11.70;99.90;;;;;;5182592;28;20260;-48
2023/10/22 01:06:36;;;;;;;17.93;12.97;;;11.80;99.90;;;;;;5181091;28;20192;-48
2023/10/22 01:09:09;;;;;;;18.33;12.13;;;11.70;99.90;;;;;;5183171;28;20503;-49
2023/10/22 01:11:57;;;;;;;15.33;10.33;;;11.70;99.90;;;;;;5182157;28;20459;-52
2023/10/22 01:14:28;;;;;;;14.20;10.47;;;11.70;99.90;;;;;;5182851;28;20436;-50
2023/10/22 01:16:58;;;;;;;16.23;12.43;;;11.70;99.90;;;;;;5182178;28;20439;-48
2023/10/22 01:19:29;;;;;;;21.23;11.90;;;11.70;99.90;;;;;;5178710;28;20284;-52
2023/10/22 01:22:00;;;;;;;14.13;11.03;;;11.70;99.90;;;;;;5182772;28;20703;-48
2023/10/22 01:24:34;;;;;;;24.97;11.20;;;11.70;99.90;;;;;;5181543;28;20176;-48
2023/10/22 01:27:05;;;;;;;16.23;10.20;;;11.70;99.90;;;;;;5173056;28;20229;-51
2023/10/22 01:29:35;;;;;;;13.33;9.93;;;11.70;99.90;;;;;;5184047;28;20467;-49
2023/10/22 01:32:06;;;;;;;13.83;10.60;;;11.70;99.90;;;;;;5179413;28;20184;-48
2023/10/22 01:34:37;;;;;;;18.93;11.10;;;11.70;99.90;;;;;;5164090;28;20176;-47
2023/10/22 01:37:07;;;;;;;16.33;11.20;;;11.70;99.90;;;;;;5181927;28;20216;-49
2023/10/22 01:39:38;;;;;;;12.53;9.73;;;11.60;99.90;;;;;;5182336;28;20204;-48
2023/10/22 01:42:08;;;;;;;12.47;9.70;;;11.70;99.90;;;;;;5184193;28;20180;-50
2023/10/22 01:44:39;;;;;;;14.40;9.47;;;11.70;99.90;;;;;;5177633;28;20267;-47
2023/10/22 01:47:13;;;;;;;10.80;8.13;;;11.70;99.90;;;;;;5177293;28;20180;-49
2023/10/22 01:49:44;;;;;;;14.17;7.80;;;11.70;99.90;;;;;;5180230;28;20209;-48
2023/10/22 01:52:14;;;;;;;10.37;7.70;;;11.70;99.90;;;;;;5181117;28;20567;-48
2023/10/22 01:54:45;;;;;;;10.10;7.33;;;11.80;99.90;;;;;;5178189;28;20185;-48
2023/10/22 01:57:16;;;;;;;20.60;11.40;;;11.80;99.90;;;;;;5179851;28;20588;-49
2023/10/22 01:59:47;;;;;;;17.70;10.23;;;11.70;99.90;;;;;;5179063;28;20211;-48
2023/10/22 02:02:18;;;;;;;10.13;8.70;;;11.70;99.90;;;;;;5182896;28;20440;-50
2023/10/22 02:04:48;;;;;;;11.20;9.17;;;11.70;99.90;;;;;;5178558;28;20188;-47
2023/10/22 02:07:19;;;;;;;16.77;9.10;;;11.70;99.90;;;;;;5181501;28;20192;-50
2023/10/22 02:09:50;;;;;;;11.47;8.37;;;11.60;99.90;;;;;;5179221;28;20208;-48
2023/10/22 02:12:29;;;;;;;8.67;7.80;;;11.60;99.90;;;;;;5178658;28;20196;-48
2023/10/22 02:15:00;;;;;;;8.87;7.83;;;11.70;99.90;;;;;;5179237;28;20196;-49
2023/10/22 02:17:31;;;;;;;11.53;8.10;;;11.70;99.90;;;;;;5177098;28;20463;-50
2023/10/22 02:20:02;;;;;;;10.70;8.07;;;11.70;99.90;;;;;;5176581;28;20187;-49
2023/10/22 02:22:33;;;;;;;14.77;9.23;;;11.70;99.90;;;;;;5178937;28;20173;-49
2023/10/22 02:25:05;;;;;;;11.07;8.37;;;11.70;99.90;;;;;;5174156;28;20435;-48
2023/10/22 02:27:36;;;;;;;12.03;8.27;;;11.70;99.90;;;;;;5179398;28;20439;-47
2023/10/22 02:30:07;;;;;;;13.90;9.07;;;11.70;99.90;;;;;;5177224;28;20466;-48
2023/10/22 02:32:38;;;;;;;14.00;9.90;;;11.70;99.90;;;;;;5178281;28;20188;-50
2023/10/22 02:35:10;;;;;;;11.70;9.47;;;11.70;99.90;;;;;;5179326;28;20852;-51
2023/10/22 02:37:41;;;;;;;12.30;8.43;;;11.60;99.90;;;;;;5181559;28;20191;-49
2023/10/22 02:40:12;;;;;;;14.20;9.63;;;11.70;99.90;;;;;;5179357;28;20798;-50
2023/10/22 02:42:42;;;;;;;13.20;8.77;;;11.60;99.90;;;;;;5179462;28;20177;-48
2023/10/22 02:45:14;;;;;;;13.20;9.70;;;11.60;99.90;;;;;;5177514;28;20188;-47
2023/10/22 02:47:44;;;;;;;17.30;10.10;;;11.60;99.90;;;;;;5182718;28;20260;-47
2023/10/22 02:50:15;;;;;;;13.67;9.90;;;11.60;99.90;;;;;;5180706;28;20505;-48
2023/10/22 02:52:46;;;;;;;19.73;10.43;;;11.60;99.90;;;;;;5175592;28;20184;-50
2023/10/22 02:55:17;;;;;;;12.30;9.00;;;11.60;99.90;;;;;;5179206;28;20219;-49
2023/10/22 02:57:48;;;;;;;9.90;8.33;;;11.50;99.90;;;;;;5182028;28;20727;-48
2023/10/22 03:00:19;;;;;;;8.13;7.23;;;11.50;99.90;;;;;;5182292;28;20447;-48
2023/10/22 03:02:49;;;;;;;12.03;8.20;;;11.60;99.90;;;;;;5173378;28;20565;-49
2023/10/22 03:05:20;;;;;;;8.00;7.17;;;11.60;99.90;;;;;;5182358;28;20453;-49
2023/10/22 03:07:50;;;;;;;9.13;6.07;;;11.60;99.90;;;;;;5186039;28;20275;-48
2023/10/22 03:10:21;;;;;;;7.23;6.13;;;11.50;99.90;;;;;;5183436;28;20212;-48
2023/10/22 03:12:52;;;;;;;7.80;6.70;;;11.50;99.90;;;;;;5180205;28;20356;-49
2023/10/22 03:15:23;;;;;;;12.03;7.70;;;11.50;99.90;;;;;;5183066;28;20268;-49
2023/10/22 03:17:56;;;;;;;9.17;6.50;;;11.50;99.90;;;;;;5185735;28;20243;-49
2023/10/22 03:20:32;;;;;;;9.57;6.37;;;11.60;99.90;;;;;;5185092;28;20554;-49
2023/10/22 03:23:05;;;;;;;8.97;6.30;;;11.50;99.90;;;;;;5184249;28;20858;-49
2023/10/22 03:25:39;;;;;;;7.30;6.20;;;11.50;99.90;;;;;;5181361;28;20453;-49
2023/10/22 03:28:12;;;;;;;14.43;5.83;;;11.60;99.90;;;;;;5184468;28;20444;-51
2023/10/22 03:30:43;;;;;;;8.67;6.40;;;11.60;99.90;;;;;;5181868;28;20487;-46
2023/10/22 03:33:14;;;;;;;6.73;5.73;;;11.60;99.90;;;;;;5186011;28;20874;-48
2023/10/22 03:35:47;;;;;;;6.60;5.97;;;11.60;99.90;;;;;;5182585;28;20192;-47
2023/10/22 03:38:18;;;;;;;8.33;6.83;;;11.60;99.90;;;;;;5180407;28;20824;-49
2023/10/22 03:40:55;;;;;;;8.73;6.40;;;11.60;99.90;;;;;;5182914;28;20439;-51
2023/10/22 03:43:29;;;;;;;9.20;6.27;;;11.60;99.90;;;;;;5185015;28;20226;-48
2023/10/22 03:46:02;;;;;;;9.97;6.03;;;11.50;99.90;;;;;;5182502;28;20593;-50
2023/10/22 03:48:32;;;;;;;5.93;5.43;;;11.50;99.90;;;;;;5179133;28;20559;-49
2023/10/22 03:51:03;;;;;;;4.50;4.20;;;11.50;99.90;;;;;;5184389;28;20558;-48
2023/10/22 03:53:35;;;;;;;6.90;6.40;;;11.50;99.90;;;;;;5182327;28;20574;-48
2023/10/22 03:56:07;;;;;;;6.57;4.07;;;11.50;99.90;;;;;;5183301;28;20192;-49
2023/10/22 03:58:37;;;;;;;5.97;5.33;;;11.40;99.90;;;;;;5185828;28;20459;-50
2023/10/22 04:01:08;;;;;;;7.60;4.57;;;11.40;99.90;;;;;;5181502;28;20949;-48
2023/10/22 04:03:39;;;;;;;5.30;4.90;;;11.40;99.90;;;;;;5184162;28;20220;-48
2023/10/22 04:06:09;;;;;;;5.30;4.63;;;11.30;99.90;;;;;;5182377;28;20234;-47
2023/10/22 04:08:40;;;;;;;5.70;5.20;;;11.30;99.90;;;;;;5181883;28;20768;-48
2023/10/22 04:11:11;;;;;;;6.90;5.03;;;11.30;99.90;;;;;;5182065;28;20250;-48
2023/10/22 04:13:41;;;;;;;5.50;4.53;;;11.30;99.90;;;;;;5178552;28;20183;-48
2023/10/22 04:16:16;;;;;;;6.77;5.30;;;11.20;99.90;;;;;;5164418;28;20181;-48
2023/10/22 04:18:46;;;;;;;6.47;5.07;;;11.20;99.90;;;;;;5168181;28;20199;-49
2023/10/22 04:21:17;;;;;;;5.37;5.00;;;11.20;99.90;;;;;;5182672;28;20862;-47
2023/10/22 04:23:48;;;;;;;4.43;4.07;;;11.20;99.90;;;;;;5177134;28;20665;-49
2023/10/22 04:26:18;;;;;;;5.23;4.77;;;11.20;99.90;;;;;;5178655;28;20598;-48
2023/10/22 04:28:49;;;;;;;5.27;4.47;;;11.20;99.90;;;;;;5182120;28;20220;-50
2023/10/22 04:31:20;;;;;;;5.17;4.50;;;11.20;99.90;;;;;;5177911;28;20207;-47
2023/10/22 04:33:51;;;;;;;5.43;4.93;;;11.20;99.90;;;;;;5183910;28;20191;-48
2023/10/22 04:36:22;;;;;;;8.10;5.40;;;11.20;99.90;;;;;;5180695;28;21008;-49
2023/10/22 04:38:53;;;;;;;5.87;5.30;;;11.20;99.90;;;;;;5182963;28;20204;-48
2023/10/22 04:41:25;;;;;;;5.73;5.23;;;11.20;99.90;;;;;;5182427;28;20217;-50
2023/10/22 04:43:55;;;;;;;6.60;4.93;;;11.20;99.90;;;;;;5181516;28;20185;-48
2023/10/22 04:46:26;;;;;;;5.90;5.20;;;11.20;99.90;;;;;;5195607;28;20469;-48
2023/10/22 04:48:57;;;;;;;6.30;5.73;;;11.20;99.90;;;;;;5186043;28;20834;-49
2023/10/22 04:51:27;;;;;;;5.70;5.30;;;11.20;99.90;;;;;;5193411;28;20181;-50
2023/10/22 04:53:58;;;;;;;9.00;8.10;;;11.20;99.90;;;;;;5197203;28;20215;-48
2023/10/22 04:56:29;;;;;;;8.33;5.90;;;11.20;99.90;;;;;;5180313;28;20188;-48
2023/10/22 04:58:59;;;;;;;8.23;6.60;;;11.20;99.90;;;;;;5180529;28;20236;-48
2023/10/22 05:01:30;;;;;;;11.13;8.50;;;11.20;99.90;;;;;;5184139;28;20191;-48
2023/10/22 05:04:01;;;;;;;7.70;7.00;;;11.20;99.90;;;;;;5167906;28;20180;-48
2023/10/22 05:06:31;;;;;;;8.00;7.07;;;11.20;99.90;;;;;;5183107;28;20208;-49
2023/10/22 05:09:02;;;;;;;9.53;7.23;;;11.20;99.90;;;;;;5163863;28;20221;-48
2023/10/22 05:11:33;;;;;;;8.67;7.87;;;11.20;99.90;;;;;;5180589;28;20199;-49
2023/10/22 05:14:04;;;;;;;8.97;7.43;;;11.10;99.90;;;;;;5181612;28;20510;-48
2023/10/22 05:16:34;;;;;;;10.70;8.83;;;11.10;99.90;;;;;;5183280;28;20184;-49
2023/10/22 05:19:05;;;;;;;10.53;8.37;;;11.10;99.90;;;;;;5183370;28;20683;-49
2023/10/22 05:21:37;;;;;;;8.50;7.73;;;11.10;99.90;;;;;;5180478;28;20196;-50
2023/10/22 05:24:09;;;;;;;17.33;7.70;;;11.10;99.90;;;;;;5193326;28;20185;-48
2023/10/22 05:26:40;;;;;;;8.87;7.43;;;11.10;99.90;;;;;;5179486;28;20848;-49
2023/10/22 05:29:11;;;;;;;10.90;8.10;;;11.20;99.90;;;;;;5180639;28;20462;-48
2023/10/22 05:31:42;;;;;;;8.77;6.90;;;11.20;99.90;;;;;;5179343;28;20215;-49
2023/10/22 05:34:13;;;;;;;8.37;7.47;;;11.20;99.90;;;;;;5182852;28;20188;-49
2023/10/22 05:36:44;;;;;;;8.23;7.50;;;11.20;99.90;;;;;;5178521;28;20432;-50
2023/10/22 05:39:15;;;;;;;8.67;7.87;;;11.20;99.90;;;;;;5178215;28;20200;-49
2023/10/22 05:41:45;;;;;;;8.33;7.20;;;11.20;99.90;;;;;;5179795;28;20664;-49
2023/10/22 05:44:16;;;;;;;9.17;5.77;;;11.20;99.90;;;;;;5182236;28;20238;-51
2023/10/22 05:46:48;;;;;;;9.43;6.87;;;11.20;99.90;;;;;;5179687;28;20188;-48
2023/10/22 05:49:20;;;;;;;7.30;6.47;;;11.20;99.90;;;;;;5179443;28;20270;-49
2023/10/22 05:51:51;;;;;;;6.23;5.37;;;11.20;99.90;;;;;;5180922;28;20526;-48
2023/10/22 05:54:22;;;;;;;6.87;6.27;;;11.20;99.90;;;;;;5179069;28;20571;-51
2023/10/22 05:56:52;;;;;;;7.10;6.40;;;11.10;99.90;;;;;;5163471;28;20530;-49
2023/10/22 05:59:23;;;;;;;9.83;6.13;;;11.10;99.90;;;;;;5179235;28;20227;-49
2023/10/22 06:01:54;;;;;;;6.57;5.97;;;11.10;99.90;;;;;;5180648;28;20270;-49
2023/10/22 06:04:25;;;;;;;8.97;6.30;;;11.10;99.90;;;;;;5176997;28;20229;-48
2023/10/22 06:06:55;;;;;;;8.70;7.07;;;11.10;99.90;;;;;;5182332;28;20590;-47
2023/10/22 06:09:26;;;;;;;8.57;6.93;;;11.10;99.90;;;;;;5179942;28;20246;-51
2023/10/22 06:11:57;;;;;;;9.73;6.80;;;11.20;99.90;;;;;;5178762;28;20187;-48
2023/10/22 06:14:27;;;;;;;8.67;5.97;;;11.20;99.90;;;;;;5180440;28;20594;-48
2023/10/22 06:16:58;;;;;;;8.17;6.37;;;11.20;99.90;;;;;;5175167;28;20172;-49
2023/10/22 06:19:28;;;;;;;7.17;5.43;;;11.20;99.90;;;;;;5181225;28;20204;-48
2023/10/22 06:21:59;;;;;;;6.70;6.03;;;11.20;99.90;;;;;;5180030;28;20177;-49
2023/10/22 06:24:30;;;;;;;6.00;5.57;;;11.30;99.90;;;;;;5177065;28;20203;-48
2023/10/22 06:27:00;;;;;;;8.97;5.83;;;11.40;99.90;;;;;;5177131;28;20196;-49
2023/10/22 06:29:31;;;;;;;6.17;5.50;;;11.50;99.90;;;;;;5180551;28;20250;-48
2023/10/22 06:32:02;;;;;;;8.47;6.43;;;11.50;99.90;;;;;;5176859;28;20188;-49
2023/10/22 06:34:34;;;;;;;9.80;5.90;;;11.50;99.90;;;;;;5182525;28;20606;-48
2023/10/22 06:37:05;;;;;;;6.10;5.50;;;11.50;99.90;;;;;;5178463;28;20446;-49
2023/10/22 06:39:36;;;;;;;5.97;5.47;;;11.40;99.90;;;;;;5175132;28;20470;-48
2023/10/22 06:42:07;;;;;;;6.13;5.53;;;11.50;99.90;;;;;;5184027;28;20172;-48
2023/10/22 06:44:41;;;;;;;11.80;5.87;;;11.50;99.90;;;;;;5166046;28;20184;-50
2023/10/22 06:47:12;;;;;;;6.87;6.17;;;11.50;99.90;;;;;;5182055;28;20188;-47
2023/10/22 06:49:43;;;;;;;7.83;7.13;;;11.60;99.90;;;;;;5183316;28;20467;-48
2023/10/22 06:52:14;;;;;;;6.43;5.93;;;11.70;99.90;;;;;;5184183;28;20595;-47
2023/10/22 06:54:44;;;;;;;10.63;8.27;;;11.70;99.90;;;;;;5178740;28;20192;-49
2023/10/22 06:57:15;;;;;;;9.97;6.93;;;11.80;99.90;;;;;;5180474;28;20329;-48
2023/10/22 06:59:51;;;;;;;7.20;6.60;;;11.90;99.90;;;;;;5160397;28;20209;-49
2023/10/22 07:02:23;;;;;;;8.17;7.47;;;12.00;99.90;;;;;;5178807;28;20632;-48
2023/10/22 07:04:55;;;;;;;8.57;7.47;;;12.00;99.90;;;;;;5180081;28;20435;-49
2023/10/22 07:07:25;;;;;;;7.70;7.00;;;12.10;99.90;;;;;;5183697;28;20465;-47
2023/10/22 07:09:57;;;;;;;12.67;9.00;;;12.20;99.90;;;;;;5179227;28;20459;-47
2023/10/22 07:12:27;;;;;;;12.93;8.50;;;12.20;99.90;;;;;;5182083;28;20656;-48
2023/10/22 07:14:58;;;;;;;9.10;8.13;;;12.20;99.90;;;;;;5179795;28;20446;-49
2023/10/22 07:17:29;;;;;;;14.20;8.37;;;12.40;99.90;;;;;;5181212;28;20191;-48
2023/10/22 07:19:59;;;;;;;60.57;32.47;;;12.50;99.90;;;;;;5182093;28;20188;-50
2023/10/22 07:22:30;;;;;;;40.20;22.07;;;12.60;99.90;;;;;;5182969;28;20184;-49
2023/10/22 07:25:01;;;;;;;25.07;14.27;;;12.60;99.90;;;;;;5184628;28;20196;-48
2023/10/22 07:27:32;;;;;;;12.37;9.60;;;12.60;99.90;;;;;;5183876;28;20242;-50
2023/10/22 07:30:03;;;;;;;19.77;10.13;;;12.70;99.90;;;;;;5198361;28;20204;-48
2023/10/22 07:32:34;;;;;;;14.73;6.70;;;12.70;99.90;;;;;;5187112;28;20180;-48
2023/10/22 07:35:06;;;;;;;15.00;7.57;;;12.90;99.90;;;;;;5186932;28;20492;-46
2023/10/22 07:37:37;;;;;;;5.90;5.37;;;12.90;99.90;;;;;;5201565;28;20535;-48
2023/10/22 07:40:08;;;;;;;9.17;5.50;;;12.90;99.90;;;;;;5180300;28;20435;-49
2023/10/22 07:42:40;;;;;;;7.70;5.17;;;13.00;99.90;;;;;;5175729;28;20447;-50
2023/10/22 07:45:11;;;;;;;5.30;4.90;;;13.10;99.90;;;;;;5185702;28;20436;-48
2023/10/22 07:47:42;;;;;;;4.50;4.10;;;13.20;99.90;;;;;;5183645;28;21243;-48
2023/10/22 07:50:13;;;;;;;4.50;3.90;;;13.40;99.90;;;;;;5183446;28;20470;-49
2023/10/22 07:52:44;;;;;;;4.47;4.07;;;13.50;99.90;;;;;;5183136;28;20214;-49
2023/10/22 07:55:15;;;;;;;6.00;4.13;;;13.70;99.90;;;;;;5182229;28;20438;-49
2023/10/22 07:57:45;;;;;;;6.97;4.37;;;13.90;99.90;;;;;;5181829;28;20447;-49
2023/10/22 08:00:16;;;;;;;10.03;4.80;;;14.10;99.90;;;;;;5181953;28;20195;-49
2023/10/22 08:02:47;;;;;;;12.40;5.00;;;14.30;99.90;;;;;;5184890;28;20600;-49
2023/10/22 08:05:18;;;;;;;3.43;3.10;;;14.50;99.90;;;;;;5181186;28;20207;-49
2023/10/22 08:07:49;;;;;;;6.80;4.43;;;14.70;99.90;;;;;;5186589;28;20209;-49
2023/10/22 08:10:20;;;;;;;4.33;3.17;;;14.80;99.90;;;;;;5185373;28;20471;-48
2023/10/22 08:12:50;;;;;;;4.00;3.60;;;15.00;99.90;;;;;;5183199;28;20181;-48
2023/10/22 08:15:21;;;;;;;3.47;2.90;;;15.10;99.90;;;;;;5180485;28;20556;-47
2023/10/22 08:17:52;;;;;;;3.60;3.17;;;15.10;99.90;;;;;;5183130;28;20201;-49
2023/10/22 08:20:22;;;;;;;3.13;2.93;;;15.10;99.90;;;;;;5197461;28;20231;-49
2023/10/22 08:22:53;;;;;;;5.37;3.80;;;15.20;99.90;;;;;;5186235;28;20188;-49
2023/10/22 08:25:24;;;;;;;11.73;3.87;;;15.30;99.90;;;;;;5183579;28;20649;-49
2023/10/22 08:27:55;;;;;;;13.60;9.30;;;15.30;99.90;;;;;;5197906;28;20283;-50
2023/10/22 08:30:26;;;;;;;12.37;8.67;;;15.40;99.90;;;;;;5186144;28;20299;-50
2023/10/22 08:32:57;;;;;;;9.63;8.10;;;15.40;99.90;;;;;;5183611;28;20534;-49
2023/10/22 08:35:27;;;;;;;14.77;7.60;;;15.50;99.90;;;;;;5185444;28;20204;-48
2023/10/22 08:37:58;;;;;;;10.40;8.13;;;15.60;99.90;;;;;;5182899;28;20207;-49
2023/10/22 08:40:29;;;;;;;10.73;6.93;;;15.60;99.90;;;;;;5182907;28;20680;-49
2023/10/22 08:43:01;;;;;;;7.70;6.73;;;15.70;99.90;;;;;;5183281;28;20177;-50
2023/10/22 08:45:32;;;;;;;4.30;3.90;;;15.90;99.90;;;;;;5180748;28;20188;-49
2023/10/22 08:48:04;;;;;;;3.80;3.37;;;15.90;99.90;;;;;;5179611;28;20851;-48
2023/10/22 08:50:37;;;;;;;4.10;3.70;;;15.90;99.90;;;;;;5182481;28;20981;-49
2023/10/22 08:53:08;;;;;;;4.70;4.40;;;15.70;99.90;;;;;;5184523;28;20485;-50
2023/10/22 08:55:45;;;;;;;7.93;5.33;;;15.90;99.90;;;;;;5184813;28;20419;-50
2023/10/22 08:58:20;;;;;;;3.17;2.97;;;15.90;99.90;;;;;;5183863;28;20977;-50
2023/10/22 09:00:54;;;;;;;2.17;2.07;;;16.00;99.90;;;;;;5185607;28;20431;-48
2023/10/22 09:03:25;;;;;;;3.80;2.77;;;16.20;99.90;;;;;;5172349;28;21048;-50
2023/10/22 09:05:57;;;;;;;3.23;1.80;;;16.10;99.90;;;;;;5179376;28;20440;-50
2023/10/22 09:08:45;;;;;;;2.80;2.03;;;16.20;99.90;;;;;;5179270;28;20467;-50
2023/10/22 09:11:17;;;;;;;4.73;1.50;;;16.10;99.90;;;;;;5186251;28;20795;-52
2023/10/22 09:13:48;;;;;;;3.10;1.60;;;16.10;99.90;;;;;;5183199;28;20454;-49
2023/10/22 09:16:33;;;;;;;1.60;1.50;;;16.10;99.90;;;;;;5182505;28;20435;-51
2023/10/22 09:19:04;;;;;;;1.00;1.00;;;16.10;99.90;;;;;;5180580;28;20212;-49
2023/10/22 09:21:45;;;;;;;1.03;0.93;;;15.90;99.90;;;;;;5181818;28;20445;-50
2023/10/22 09:24:15;;;;;;;6.13;1.57;;;16.00;99.90;;;;;;5180368;28;20222;-51
2023/10/22 09:26:50;;;;;;;4.90;1.60;;;16.00;99.90;;;;;;5179940;28;20848;-50
2023/10/22 09:29:21;;;;;;;2.43;1.70;;;16.10;99.90;;;;;;5182250;28;20615;-51
2023/10/22 09:31:54;;;;;;;2.80;1.90;;;16.00;99.90;;;;;;5181730;28;20787;-51
2023/10/22 09:34:26;;;;;;;1.50;1.50;;;16.00;99.90;;;;;;5179460;28;20439;-51
2023/10/22 09:36:57;;;;;;;2.53;1.30;;;16.00;99.90;;;;;;5185905;28;20510;-52
2023/10/22 09:39:34;;;;;;;6.40;1.93;;;16.00;99.90;;;;;;5183094;28;20455;-51
2023/10/22 09:42:07;;;;;;;1.60;1.53;;;16.00;99.90;;;;;;5187414;28;20841;-51
2023/10/22 09:44:46;;;;;;;1.93;1.73;;;16.00;99.90;;;;;;5192759;28;20508;-50
2023/10/22 09:47:25;;;;;;;3.80;1.80;;;16.00;99.90;;;;;;5189725;28;20897;-51
2023/10/22 09:50:04;;;;;;;3.77;2.20;;;15.90;99.90;;;;;;5192651;28;20474;-52
2023/10/22 09:52:42;;;;;;;4.10;2.27;;;15.80;99.90;;;;;;5184377;28;20459;-50
2023/10/22 09:55:13;;;;;;;3.97;2.60;;;15.70;99.90;;;;;;5182045;28;20862;-52
2023/10/22 09:57:46;;;;;;;6.30;4.10;;;15.70;99.90;;;;;;5174307;28;20955;-51
2023/10/22 10:00:17;;;;;;;3.70;2.67;;;15.60;99.90;;;;;;5176567;28;20970;-50
2023/10/22 10:02:49;;;;;;;5.50;1.97;;;15.50;99.90;;;;;;5179312;28;20451;-51
2023/10/22 10:05:21;;;;;;;8.20;6.47;;;15.70;99.90;;;;;;5181121;28;20449;-51
2023/10/22 10:07:52;;;;;;;4.40;3.10;;;15.70;99.90;;;;;;5178864;28;20529;-52
2023/10/22 10:10:24;;;;;;;2.70;2.50;;;15.70;99.90;;;;;;5190436;28;20931;-51
2023/10/22 10:12:55;;;;;;;10.90;5.00;;;15.80;99.90;;;;;;5187512;28;20534;-50
2023/10/22 10:15:38;;;;;;;12.60;7.10;;;15.90;99.90;;;;;;5181257;28;20447;-50
2023/10/22 10:18:09;;;;;;;5.33;3.70;;;15.90;99.90;;;;;;5190256;28;20688;-50
2023/10/22 10:20:41;;;;;;;3.93;3.67;;;15.80;99.90;;;;;;5175650;28;20811;-51
2023/10/22 10:23:19;;;;;;;2.80;2.60;;;15.70;99.90;;;;;;5170970;28;20476;-52
2023/10/22 10:25:49;;;;;;;3.30;3.10;;;15.70;99.90;;;;;;5184178;28;20431;-53
2023/10/22 10:28:39;;;;;;;3.77;2.20;;;15.90;99.90;;;;;;5182816;28;20477;-51
2023/10/22 10:31:29;;;;;;;2.53;2.13;;;15.80;99.90;;;;;;5186437;28;20216;-49
2023/10/22 10:34:01;;;;;;;3.80;1.73;;;15.70;99.90;;;;;;5188111;28;20434;-50
2023/10/22 10:36:33;;;;;;;2.57;2.00;;;15.60;99.90;;;;;;5182507;28;20474;-51
2023/10/22 10:39:36;;;;;;;2.07;1.90;;;15.60;99.90;;;;;;5196539;28;20484;-51
2023/10/22 10:42:07;;;;;;;1.40;1.33;;;15.70;99.90;;;;;;5179789;28;20431;-51
2023/10/22 10:45:02;;;;;;;3.10;1.90;;;15.70;99.90;;;;;;5189949;28;20414;-50
2023/10/22 10:47:40;;;;;;;3.03;1.90;;;15.80;99.90;;;;;;5179576;28;20518;-50
2023/10/22 10:50:17;;;;;;;7.30;1.77;;;15.70;99.90;;;;;;5196471;28;20454;-51
2023/10/22 10:52:48;;;;;;;4.23;3.80;;;15.70;99.90;;;;;;5182994;28;20475;-51
2023/10/22 10:55:21;;;;;;;10.73;2.57;;;15.70;99.90;;;;;;5183456;28;20536;-50
2023/10/22 10:57:53;;;;;;;4.03;1.70;;;15.70;99.90;;;;;;5180218;28;20747;-51
2023/10/22 11:00:30;;;;;;;2.60;1.50;;;15.80;99.90;;;;;;5181984;28;20450;-51
2023/10/22 11:03:03;;;;;;;2.43;1.73;;;15.90;99.90;;;;;;5180747;28;20775;-52
2023/10/22 11:05:42;;;;;;;2.10;2.00;;;16.00;99.90;;;;;;5172405;28;20439;-51
2023/10/22 11:08:22;;;;;;;3.40;2.03;;;16.00;99.90;;;;;;5173361;28;20536;-51
2023/10/22 11:10:52;;;;;;;7.10;2.70;;;16.10;99.90;;;;;;5186859;28;20540;-51
2023/10/22 11:13:27;;;;;;;4.20;2.13;;;16.10;99.90;;;;;;5185546;28;20436;-51
2023/10/22 11:16:03;;;;;;;4.07;1.77;;;16.10;99.90;;;;;;5181999;28;20230;-51
2023/10/22 11:18:53;;;;;;;8.97;2.87;;;16.30;99.90;;;;;;5182501;28;20877;-52
2023/10/22 11:21:24;;;;;;;8.60;2.00;;;16.20;99.90;;;;;;5163337;28;20458;-51
2023/10/22 11:23:55;;;;;;;4.67;2.67;;;16.30;99.90;;;;;;5175489;28;21964;-52
2023/10/22 11:26:26;;;;;;;1.67;1.57;;;16.30;99.90;;;;;;5188623;28;20196;-51
2023/10/22 11:28:57;;;;;;;2.00;1.60;;;16.30;99.90;;;;;;5173683;28;20605;-50
2023/10/22 11:31:28;;;;;;;1.87;1.70;;;16.30;99.90;;;;;;5188100;28;20442;-52
2023/10/22 11:34:17;;;;;;;5.77;2.17;;;16.40;99.90;;;;;;5188248;28;20849;-51
2023/10/22 11:36:48;;;;;;;6.60;1.50;;;16.40;99.90;;;;;;5185204;28;20193;-50
2023/10/22 11:39:20;;;;;;;3.80;1.60;;;16.60;99.90;;;;;;5183640;28;21003;-50
2023/10/22 11:42:00;;;;;;;2.33;1.70;;;16.80;99.90;;;;;;5198336;28;20259;-49
2023/10/22 11:44:36;;;;;;;7.47;2.67;;;17.00;99.90;;;;;;5183751;28;20431;-50
2023/10/22 11:47:24;;;;;;;3.27;2.60;;;17.10;99.90;;;;;;5185143;28;21026;-50
2023/10/22 11:49:55;;;;;;;5.33;2.37;;;17.20;99.90;;;;;;5183983;28;20561;-50
2023/10/22 11:52:36;;;;;;;7.07;2.50;;;17.40;99.90;;;;;;5185521;28;20447;-48
2023/10/22 11:55:09;;;;;;;6.10;1.70;;;17.60;99.90;;;;;;5181885;28;20183;-49
2023/10/22 11:57:39;;;;;;;2.80;2.27;;;17.70;99.90;;;;;;5183340;28;20439;-50
2023/10/22 12:00:11;;;;;;;4.00;2.00;;;17.60;99.90;;;;;;5183333;28;20455;-49
2023/10/22 12:02:42;;;;;;;3.60;2.73;;;17.60;99.90;;;;;;5186800;28;20188;-50
2023/10/22 12:05:14;;;;;;;5.37;1.67;;;17.80;99.90;;;;;;5186812;28;20434;-50
2023/10/22 12:07:45;;;;;;;1.10;1.00;;;18.00;99.90;;;;;;5183472;28;20510;-50
2023/10/22 12:10:17;;;;;;;3.40;1.10;;;18.00;99.90;;;;;;5194684;28;20565;-50
2023/10/22 12:12:49;;;;;;;1.83;1.30;;;18.10;99.90;;;;;;5183716;28;20446;-52
2023/10/22 12:15:20;;;;;;;2.50;1.47;;;18.00;99.90;;;;;;5182604;28;20424;-51
2023/10/22 12:17:51;;;;;;;1.67;0.90;;;17.80;99.90;;;;;;5199906;28;20848;-50
2023/10/22 12:20:22;;;;;;;1.70;1.30;;;17.80;99.90;;;;;;5174681;28;20470;-49
2023/10/22 12:22:53;;;;;;;1.07;1.03;;;17.80;99.90;;;;;;5199568;28;20184;-50
2023/10/22 12:25:23;;;;;;;2.90;1.13;;;17.80;99.90;;;;;;5184430;28;20565;-51
2023/10/22 12:27:54;;;;;;;4.00;1.70;;;17.80;99.90;;;;;;5181583;28;20208;-50
2023/10/22 12:30:26;;;;;;;2.80;2.60;;;17.80;99.90;;;;;;5179809;28;20212;-52
2023/10/22 12:32:57;;;;;;;1.90;1.80;;;17.80;99.90;;;;;;5176971;28;20203;-49
2023/10/22 12:35:28;;;;;;;3.20;1.27;;;17.90;99.90;;;;;;5177488;28;20529;-51
2023/10/22 12:37:58;;;;;;;3.60;1.70;;;18.00;99.90;;;;;;5189563;28;20536;-50
2023/10/22 12:40:29;;;;;;;3.43;1.53;;;18.20;99.90;;;;;;5189422;28;20241;-51
2023/10/22 12:43:00;;;;;;;3.40;2.70;;;18.20;99.90;;;;;;5189497;28;20196;-52
2023/10/22 12:45:31;;;;;;;9.63;6.77;;;18.10;99.90;;;;;;5187638;28;20187;-52
2023/10/22 12:48:03;;;;;;;5.87;4.70;;;17.80;99.90;;;;;;5187880;28;20238;-51
2023/10/22 12:50:34;;;;;;;3.20;2.73;;;17.60;99.90;;;;;;5175012;28;20247;-50
2023/10/22 12:53:05;;;;;;;1.93;1.77;;;17.60;99.90;;;;;;5182954;28;20467;-51
2023/10/22 12:55:35;;;;;;;8.10;2.00;;;17.60;99.90;;;;;;5182086;28;20267;-50
2023/10/22 12:58:06;;;;;;;4.37;1.73;;;17.60;99.90;;;;;;5182463;28;20816;-49
2023/10/22 13:00:39;;;;;;;2.50;2.30;;;17.70;99.90;;;;;;5177589;28;20193;-50
2023/10/22 13:03:10;;;;;;;8.13;2.27;;;17.80;99.90;;;;;;5174491;28;20192;-51
2023/10/22 13:05:41;;;;;;;10.40;2.33;;;17.90;99.90;;;;;;5182634;28;20463;-51
2023/10/22 13:08:12;;;;;;;9.10;3.10;;;18.00;99.90;;;;;;5184939;28;20664;-49